createdAt,value
2024-04-30T00:01:32.310Z,71.25
2024-04-30T00:04:01.482Z,71.89
2024-04-30T00:06:35.298Z,72.52
2024-04-30T00:09:04.735Z,72.23
2024-04-30T00:11:48.143Z,71.93
2024-04-30T00:14:18.154Z,72.83
2024-04-30T00:16:49.999Z,73.01
2024-04-30T00:19:18.708Z,73.44
2024-04-30T00:21:50.568Z,73.51
2024-04-30T00:24:19.090Z,72.66
2024-04-30T00:26:50.611Z,73.42
2024-04-30T00:29:19.075Z,73.31
2024-04-30T00:31:51.598Z,73.45
2024-04-30T00:34:20.080Z,74.25
2024-04-30T00:36:51.559Z,73.69
2024-04-30T00:39:21.663Z,73.65
2024-04-30T00:41:55.671Z,73.35
2024-04-30T00:44:26.025Z,73.77
2024-04-30T00:46:58.900Z,73.84
2024-04-30T00:49:27.622Z,73.86
2024-04-30T00:52:00.361Z,74.01
2024-04-30T00:54:29.500Z,72.73
2024-04-30T00:57:01.355Z,73.20
2024-04-30T00:59:30.116Z,72.72
2024-04-30T01:02:02.191Z,72.65
2024-04-30T01:04:34.262Z,73.35
2024-04-30T01:07:07.932Z,73.84
2024-04-30T01:09:37.209Z,73.90
2024-04-30T01:12:09.057Z,74.07
2024-04-30T01:14:37.423Z,74.24
2024-04-30T01:17:09.217Z,73.50
2024-04-30T01:19:38.848Z,74.28
2024-04-30T01:22:11.339Z,74.48
2024-04-30T01:24:40.289Z,74.28
2024-04-30T01:27:11.525Z,74.38
2024-04-30T01:29:40.409Z,74.20
2024-04-30T01:32:12.644Z,74.22
2024-04-30T01:34:41.802Z,74.02
2024-04-30T01:37:13.463Z,74.24
2024-04-30T01:39:42.276Z,74.39
2024-04-30T01:42:13.914Z,74.47
2024-04-30T01:44:42.874Z,74.19
2024-04-30T01:47:14.567Z,74.07
2024-04-30T01:49:44.360Z,73.90
2024-04-30T01:52:16.263Z,73.88
2024-04-30T01:54:44.697Z,73.82
2024-04-30T01:57:18.396Z,73.57
2024-04-30T01:59:46.659Z,73.74
2024-04-30T02:02:18.556Z,73.71
2024-04-30T02:04:52.867Z,73.67
2024-04-30T02:07:25.407Z,73.70
2024-04-30T02:09:54.140Z,74.19
2024-04-30T02:12:25.861Z,74.73
2024-04-30T02:14:54.326Z,74.82
2024-04-30T02:17:27.989Z,74.51
2024-04-30T02:19:56.712Z,74.15
2024-04-30T02:22:30.372Z,74.82
2024-04-30T02:25:01.832Z,74.63
2024-04-30T02:27:34.546Z,75.39
2024-04-30T02:30:03.012Z,75.82
2024-04-30T02:32:50.804Z,74.95
2024-04-30T02:35:22.068Z,76.01
2024-04-30T02:37:53.526Z,75.35
2024-04-30T02:40:24.582Z,74.93
2024-04-30T02:42:55.656Z,76.05
2024-04-30T02:45:26.699Z,76.32
2024-04-30T02:47:55.775Z,76.29
2024-04-30T02:50:26.869Z,75.83
2024-04-30T02:52:55.633Z,76.62
2024-04-30T02:55:26.780Z,76.47
2024-04-30T02:57:55.580Z,77.12
2024-04-30T03:00:27.057Z,76.74
2024-04-30T03:02:56.143Z,76.39
2024-04-30T03:05:27.327Z,76.30
2024-04-30T03:07:56.110Z,76.84
2024-04-30T03:10:27.084Z,76.38
2024-04-30T03:12:57.041Z,75.97
2024-04-30T03:15:27.753Z,76.79
2024-04-30T03:17:56.537Z,76.62
2024-04-30T03:20:28.601Z,76.22
2024-04-30T03:22:57.960Z,76.11
2024-04-30T03:25:28.974Z,76.35
2024-04-30T03:28:01.386Z,76.07
2024-04-30T03:30:34.009Z,76.18
2024-04-30T03:33:05.476Z,74.38
2024-04-30T03:35:37.062Z,73.94
2024-04-30T03:38:09.163Z,74.24
2024-04-30T03:40:40.944Z,74.28
2024-04-30T03:43:13.287Z,74.42
2024-04-30T03:45:44.498Z,74.10
2024-04-30T03:48:16.732Z,73.76
2024-04-30T03:50:51.698Z,72.87
2024-04-30T03:53:20.586Z,72.05
2024-04-30T03:55:53.642Z,71.81
2024-04-30T03:58:23.162Z,71.49
2024-04-30T04:00:54.939Z,70.52
2024-04-30T04:03:24.015Z,70.68
2024-04-30T04:05:55.136Z,70.07
2024-04-30T04:08:23.928Z,69.81
2024-04-30T04:11:07.163Z,69.14
2024-04-30T04:13:58.689Z,68.95
2024-04-30T04:16:29.690Z,68.63
2024-04-30T04:19:01.206Z,67.66
2024-04-30T04:21:32.517Z,67.83
2024-04-30T04:24:04.078Z,66.68
2024-04-30T04:26:32.521Z,67.06
2024-04-30T04:29:03.946Z,66.57
2024-04-30T04:31:32.626Z,65.78
2024-04-30T04:34:04.885Z,65.55
2024-04-30T04:36:33.208Z,65.69
2024-04-30T04:39:04.939Z,65.37
2024-04-30T04:41:33.326Z,65.11
2024-04-30T04:44:04.817Z,64.18
2024-04-30T04:46:33.245Z,63.97
2024-04-30T04:49:07.897Z,63.21
2024-04-30T04:51:36.573Z,59.97
2024-04-30T04:54:08.296Z,57.26
2024-04-30T04:56:36.769Z,55.28
2024-04-30T04:59:08.240Z,54.14
2024-04-30T05:01:36.650Z,54.19
2024-04-30T05:04:08.719Z,53.43
2024-04-30T05:06:41.717Z,54.13
2024-04-30T05:09:13.244Z,53.49
2024-04-30T05:11:41.615Z,52.32
2024-04-30T05:14:13.322Z,52.90
2024-04-30T05:16:41.791Z,54.17
2024-04-30T05:19:13.280Z,53.26
2024-04-30T05:21:41.782Z,52.05
2024-04-30T05:24:13.184Z,53.17
2024-04-30T05:26:42.010Z,52.42
2024-04-30T05:29:13.560Z,50.54
2024-04-30T05:31:42.154Z,49.95
2024-04-30T05:34:13.418Z,51.60
2024-04-30T05:36:41.845Z,50.62
2024-04-30T05:39:13.076Z,48.22
2024-04-30T05:41:41.343Z,46.64
2024-04-30T05:44:12.961Z,46.92
2024-04-30T05:46:41.447Z,47.54
2024-04-30T05:49:13.281Z,46.93
2024-04-30T05:51:43.132Z,46.46
2024-04-30T05:54:14.967Z,44.60
2024-04-30T05:56:43.365Z,43.12
2024-04-30T05:59:14.755Z,41.83
2024-04-30T06:01:43.100Z,40.51
2024-04-30T06:04:14.588Z,40.44
2024-04-30T06:06:42.913Z,40.35
2024-04-30T06:09:14.527Z,39.09
2024-04-30T06:11:43.214Z,37.89
2024-04-30T06:14:14.765Z,38.79
2024-04-30T06:16:43.103Z,38.64
2024-04-30T06:19:14.933Z,36.62
2024-04-30T06:21:45.257Z,35.87
2024-04-30T06:24:16.971Z,34.95
2024-04-30T06:26:45.558Z,35.07
2024-04-30T06:29:17.501Z,34.30
2024-04-30T06:31:45.914Z,33.57
2024-04-30T06:34:17.572Z,33.52
2024-04-30T06:36:45.994Z,32.96
2024-04-30T06:39:18.811Z,32.84
2024-04-30T06:41:47.193Z,32.30
2024-04-30T06:44:18.637Z,32.90
2024-04-30T06:46:47.092Z,32.35
2024-04-30T06:49:18.699Z,32.45
2024-04-30T06:51:47.045Z,31.97
2024-04-30T06:54:18.598Z,31.58
2024-04-30T06:56:47.030Z,31.04
2024-04-30T06:59:18.949Z,30.93
2024-04-30T07:01:47.310Z,32.67
2024-04-30T07:04:19.131Z,32.57
2024-04-30T07:06:47.611Z,32.74
2024-04-30T07:09:19.619Z,33.39
2024-04-30T07:11:48.954Z,33.32
2024-04-30T07:14:21.807Z,32.79
2024-04-30T07:16:56.806Z,31.27
2024-04-30T07:19:34.683Z,31.73
2024-04-30T07:22:03.605Z,30.27
2024-04-30T07:24:35.423Z,32.59
2024-04-30T07:27:04.086Z,31.52
2024-04-30T07:29:35.906Z,32.65
2024-04-30T07:32:05.004Z,31.79
2024-04-30T07:34:36.973Z,30.58
2024-04-30T07:37:07.505Z,30.04
2024-04-30T07:39:39.151Z,30.04
2024-04-30T07:42:09.451Z,30.06
2024-04-30T07:44:41.434Z,30.55
2024-04-30T07:47:13.031Z,32.42
2024-04-30T07:49:44.616Z,32.08
2024-04-30T07:52:15.079Z,31.17
2024-04-30T07:54:47.904Z,30.54
2024-04-30T07:57:16.981Z,31.67
2024-04-30T07:59:52.288Z,33.58
2024-04-30T08:02:20.739Z,36.21
2024-04-30T08:04:52.500Z,35.06
2024-04-30T08:07:21.022Z,33.52
2024-04-30T08:09:52.598Z,32.27
2024-04-30T08:12:25.631Z,32.69
2024-04-30T08:15:04.492Z,35.25
2024-04-30T08:17:34.620Z,33.35
2024-04-30T08:20:06.907Z,32.58
2024-04-30T08:22:35.531Z,32.21
2024-04-30T08:25:07.279Z,33.40
2024-04-30T08:27:35.699Z,34.09
2024-04-30T08:30:08.275Z,32.01
2024-04-30T08:32:36.908Z,33.77
2024-04-30T08:35:08.821Z,32.23
2024-04-30T08:37:43.389Z,31.86
2024-04-30T08:40:19.587Z,33.75
2024-04-30T08:42:50.648Z,33.70
2024-04-30T08:45:22.988Z,36.35
2024-04-30T08:47:52.903Z,37.26
2024-04-30T08:50:27.517Z,35.85
2024-04-30T08:52:58.151Z,34.44
2024-04-30T08:55:31.206Z,33.51
2024-04-30T08:57:59.890Z,34.15
2024-04-30T09:00:32.284Z,35.85
2024-04-30T09:03:04.996Z,34.99
2024-04-30T09:05:37.177Z,33.59
2024-04-30T09:08:06.215Z,32.39
2024-04-30T09:10:38.547Z,31.92
2024-04-30T09:13:07.255Z,31.93
2024-04-30T09:15:38.840Z,31.61
2024-04-30T09:18:11.164Z,31.10
2024-04-30T09:20:52.107Z,29.88
2024-04-30T09:23:50.008Z,29.51
2024-04-30T09:26:19.479Z,29.42
2024-04-30T09:28:59.949Z,30.88
2024-04-30T09:31:40.131Z,32.69
2024-04-30T09:34:11.910Z,31.45
2024-04-30T09:36:41.074Z,29.93
2024-04-30T09:39:14.224Z,33.28
2024-04-30T09:41:46.066Z,34.19
2024-04-30T09:44:17.998Z,33.31
2024-04-30T09:46:52.210Z,31.50
2024-04-30T09:49:24.669Z,31.56
2024-04-30T09:51:56.861Z,31.23
2024-04-30T09:54:29.783Z,31.32
2024-04-30T09:57:02.636Z,31.70
2024-04-30T09:59:34.064Z,32.01
2024-04-30T10:02:09.554Z,31.34
2024-04-30T10:04:41.651Z,33.10
2024-04-30T10:07:11.782Z,32.95
2024-04-30T10:09:42.728Z,32.32
2024-04-30T10:12:28.808Z,34.48
2024-04-30T10:15:15.104Z,36.00
2024-04-30T10:17:44.551Z,35.94
2024-04-30T10:20:18.574Z,37.01
2024-04-30T10:22:47.434Z,38.41
2024-04-30T10:25:26.377Z,39.37
2024-04-30T10:28:09.693Z,40.92
2024-04-30T10:30:40.846Z,41.63
2024-04-30T10:33:09.830Z,41.43
2024-04-30T10:35:47.518Z,42.79
2024-04-30T10:38:16.445Z,43.80
2024-04-30T10:40:47.587Z,43.13
2024-04-30T10:43:28.294Z,40.70
2024-04-30T10:45:56.769Z,39.75
2024-04-30T10:48:28.490Z,38.72
2024-04-30T10:51:02.911Z,38.71
2024-04-30T10:53:34.707Z,38.29
2024-04-30T10:56:03.252Z,36.90
2024-04-30T10:58:34.940Z,37.15
2024-04-30T11:01:03.396Z,37.53
2024-04-30T11:03:35.228Z,36.49
2024-04-30T11:06:03.703Z,36.66
2024-04-30T11:08:35.448Z,36.00
2024-04-30T11:11:20.509Z,36.07
2024-04-30T11:13:51.762Z,35.70
2024-04-30T11:16:22.999Z,35.30
2024-04-30T11:18:52.002Z,35.26
2024-04-30T11:21:26.301Z,35.90
2024-04-30T11:23:54.942Z,36.99
2024-04-30T11:26:25.967Z,35.97
2024-04-30T11:29:08.980Z,36.17
2024-04-30T11:31:46.817Z,36.48
2024-04-30T11:34:15.969Z,36.70
2024-04-30T11:36:47.399Z,36.37
2024-04-30T11:39:17.141Z,36.80
2024-04-30T11:41:52.349Z,36.91
2024-04-30T11:44:30.800Z,37.38
2024-04-30T11:47:05.892Z,38.31
2024-04-30T11:49:38.621Z,38.00
2024-04-30T11:52:07.201Z,38.20
2024-04-30T11:54:39.189Z,39.43
2024-04-30T11:57:07.646Z,38.58
2024-04-30T11:59:41.884Z,39.81
2024-04-30T12:02:10.577Z,41.35
2024-04-30T12:04:42.418Z,40.02
2024-04-30T12:07:10.889Z,39.39
2024-04-30T12:09:45.181Z,39.38
2024-04-30T12:12:13.640Z,40.95
2024-04-30T12:14:45.062Z,41.39
2024-04-30T12:17:13.578Z,41.68
2024-04-30T12:19:45.510Z,41.31
2024-04-30T12:22:13.978Z,39.99
2024-04-30T12:24:45.587Z,38.93
2024-04-30T12:27:14.196Z,40.82
2024-04-30T12:29:45.854Z,40.88
2024-04-30T12:32:14.346Z,41.56
2024-04-30T12:34:46.434Z,40.91
2024-04-30T12:37:14.882Z,39.20
2024-04-30T12:39:46.753Z,40.07
2024-04-30T12:42:15.421Z,39.47
2024-04-30T12:44:50.917Z,39.13
2024-04-30T12:47:19.580Z,39.20
2024-04-30T12:49:51.187Z,38.21
2024-04-30T12:52:20.042Z,38.85
2024-04-30T12:54:51.692Z,38.88
2024-04-30T12:57:20.107Z,39.65
2024-04-30T12:59:51.579Z,40.84
2024-04-30T13:02:20.008Z,40.99
2024-04-30T13:04:52.033Z,40.86
2024-04-30T13:07:20.658Z,38.51
2024-04-30T13:09:52.220Z,38.45
2024-04-30T13:12:20.941Z,38.11
2024-04-30T13:14:52.527Z,38.46
2024-04-30T13:17:20.889Z,38.26
2024-04-30T13:19:52.128Z,35.92
2024-04-30T13:22:20.557Z,35.60
2024-04-30T13:24:52.064Z,34.55
2024-04-30T13:27:20.374Z,33.97
2024-04-30T13:29:51.919Z,34.09
2024-04-30T13:32:20.675Z,35.47
2024-04-30T13:34:52.558Z,35.42
2024-04-30T13:37:21.088Z,34.49
2024-04-30T13:39:52.687Z,34.78
2024-04-30T13:42:21.589Z,34.65
2024-04-30T13:44:53.276Z,34.05
2024-04-30T13:47:22.155Z,34.65
2024-04-30T13:49:53.741Z,34.31
2024-04-30T13:52:22.758Z,34.87
2024-04-30T13:54:53.773Z,34.57
2024-04-30T13:57:22.743Z,35.54
2024-04-30T13:59:54.039Z,35.85
2024-04-30T14:02:23.092Z,36.94
2024-04-30T14:04:53.977Z,38.80
2024-04-30T14:07:22.906Z,39.18
2024-04-30T14:09:54.235Z,38.98
2024-04-30T14:12:23.157Z,38.92
2024-04-30T14:14:54.478Z,40.39
2024-04-30T14:17:23.646Z,40.45
2024-04-30T14:19:55.098Z,39.48
2024-04-30T14:22:24.014Z,39.80
2024-04-30T14:24:55.178Z,39.08
2024-04-30T14:27:24.082Z,39.72
2024-04-30T14:29:55.348Z,40.88
2024-04-30T14:32:26.137Z,41.27
2024-04-30T14:34:57.445Z,41.26
2024-04-30T14:37:26.535Z,41.07
2024-04-30T14:39:57.707Z,42.29
2024-04-30T14:42:29.593Z,41.58
2024-04-30T14:45:06.673Z,40.92
2024-04-30T14:47:37.015Z,41.46
2024-04-30T14:50:08.502Z,42.54
2024-04-30T14:52:38.327Z,42.75
2024-04-30T14:55:09.511Z,41.83
2024-04-30T14:57:38.457Z,41.69
2024-04-30T15:00:10.001Z,42.66
2024-04-30T15:02:38.883Z,41.78
2024-04-30T15:05:10.424Z,41.64
2024-04-30T15:07:39.473Z,40.24
2024-04-30T15:10:11.881Z,39.73
2024-04-30T15:12:40.741Z,39.49
2024-04-30T15:15:12.302Z,40.46
2024-04-30T15:17:41.356Z,41.21
2024-04-30T15:20:13.184Z,41.00
2024-04-30T15:22:42.160Z,41.31
2024-04-30T15:25:13.512Z,41.16
2024-04-30T15:27:42.374Z,41.52
2024-04-30T15:30:15.510Z,40.38
2024-04-30T15:32:46.094Z,39.70
2024-04-30T15:35:20.346Z,39.86
2024-04-30T15:37:50.096Z,39.15
2024-04-30T15:40:21.422Z,39.72
2024-04-30T15:42:50.400Z,39.67
2024-04-30T15:45:21.708Z,41.07
2024-04-30T15:47:50.820Z,39.95
2024-04-30T15:50:22.084Z,40.29
2024-04-30T15:52:51.162Z,40.56
2024-04-30T15:55:22.440Z,39.81
2024-04-30T15:57:51.719Z,39.65
2024-04-30T16:00:22.914Z,40.06
2024-04-30T16:02:52.082Z,39.29
2024-04-30T16:05:23.396Z,39.89
2024-04-30T16:07:53.225Z,39.40
2024-04-30T16:10:24.595Z,39.97
2024-04-30T16:12:53.613Z,40.02
2024-04-30T16:15:24.999Z,40.81
2024-04-30T16:17:53.950Z,40.98
2024-04-30T16:20:24.880Z,40.74
2024-04-30T16:22:53.756Z,39.84
2024-04-30T16:25:24.878Z,39.81
2024-04-30T16:27:53.912Z,39.48
2024-04-30T16:30:25.093Z,40.23
2024-04-30T16:32:54.260Z,39.90
2024-04-30T16:35:25.810Z,41.34
2024-04-30T16:37:54.761Z,41.54
2024-04-30T16:40:25.795Z,41.44
2024-04-30T16:42:55.144Z,41.67
2024-04-30T16:45:26.628Z,42.53
2024-04-30T16:47:55.751Z,43.89
2024-04-30T16:50:26.938Z,44.67
2024-04-30T16:52:59.278Z,44.87
2024-04-30T16:55:31.446Z,44.55
2024-04-30T16:58:03.624Z,45.41
2024-04-30T17:00:35.187Z,45.20
2024-04-30T17:03:04.608Z,44.81
2024-04-30T17:05:35.818Z,45.23
2024-04-30T17:08:07.941Z,44.99
2024-04-30T17:10:36.344Z,45.85
2024-04-30T17:13:07.694Z,45.04
2024-04-30T17:15:36.125Z,45.87
2024-04-30T17:18:08.572Z,46.36
2024-04-30T17:20:37.024Z,47.65
2024-04-30T17:23:08.369Z,47.34
2024-04-30T17:25:36.734Z,47.96
2024-04-30T17:28:08.766Z,47.95
2024-04-30T17:30:37.232Z,47.83
2024-04-30T17:33:09.065Z,48.99
2024-04-30T17:35:37.581Z,49.13
2024-04-30T17:38:09.306Z,50.89
2024-04-30T17:40:37.749Z,52.46
2024-04-30T17:43:10.211Z,53.61
2024-04-30T17:45:38.855Z,53.86
2024-04-30T17:48:11.418Z,54.97
2024-04-30T17:50:39.928Z,55.38
2024-04-30T17:53:11.222Z,55.66
2024-04-30T17:55:42.189Z,57.39
2024-04-30T17:58:11.613Z,57.60
2024-04-30T18:00:42.441Z,58.29
2024-04-30T18:03:11.955Z,59.77
2024-04-30T18:05:43.130Z,60.42
2024-04-30T18:08:11.990Z,60.41
2024-04-30T18:10:49.530Z,61.75
2024-04-30T18:13:25.559Z,62.46
2024-04-30T18:15:54.347Z,62.92
2024-04-30T18:18:25.920Z,62.65
2024-04-30T18:20:54.757Z,62.34
2024-04-30T18:23:26.593Z,62.28
2024-04-30T18:25:55.124Z,62.30
2024-04-30T18:28:27.045Z,62.59
2024-04-30T18:30:58.173Z,62.68
2024-04-30T18:33:27.118Z,61.57
2024-04-30T18:35:58.356Z,62.39
2024-04-30T18:38:27.247Z,63.79
2024-04-30T18:41:00.081Z,64.40
2024-04-30T18:43:34.258Z,64.92
2024-04-30T18:46:05.801Z,64.80
2024-04-30T18:48:35.427Z,64.81
2024-04-30T18:51:06.732Z,65.82
2024-04-30T18:53:38.453Z,65.40
2024-04-30T18:56:10.406Z,65.43
2024-04-30T18:58:39.538Z,65.22
2024-04-30T19:01:11.459Z,65.56
2024-04-30T19:03:40.996Z,66.41
2024-04-30T19:06:14.490Z,66.83
2024-04-30T19:08:48.274Z,66.96
2024-04-30T19:11:20.568Z,66.31
2024-04-30T19:13:52.992Z,66.49
2024-04-30T19:16:24.875Z,66.95
2024-04-30T19:18:54.379Z,66.99
2024-04-30T19:21:28.675Z,67.57
2024-04-30T19:23:57.646Z,68.26
2024-04-30T19:26:28.996Z,69.77
2024-04-30T19:29:09.818Z,69.60
2024-04-30T19:32:11.525Z,68.94
2024-04-30T19:34:44.477Z,69.44
2024-04-30T19:37:13.670Z,69.09
2024-04-30T19:39:46.439Z,69.33
2024-04-30T19:42:15.294Z,68.70
2024-04-30T19:44:53.654Z,69.56
2024-04-30T19:47:22.426Z,69.31
2024-04-30T19:50:41.679Z,70.93
2024-04-30T19:53:14.584Z,71.34
2024-04-30T19:55:47.883Z,71.52
2024-04-30T19:58:17.306Z,72.07
2024-04-30T20:00:50.697Z,73.36
2024-04-30T20:03:19.811Z,73.39
2024-04-30T20:05:52.085Z,73.36
2024-04-30T20:08:20.911Z,72.76
2024-04-30T20:10:53.488Z,72.60
2024-04-30T20:13:24.579Z,72.81
2024-04-30T20:15:56.306Z,73.46
2024-04-30T20:18:25.136Z,74.25
2024-04-30T20:20:56.805Z,73.84
2024-04-30T20:23:28.130Z,74.48
2024-04-30T20:26:00.177Z,73.82
2024-04-30T20:28:28.795Z,73.94
2024-04-30T20:31:02.794Z,73.60
2024-04-30T20:33:34.480Z,73.84
2024-04-30T20:36:03.684Z,74.63
2024-04-30T20:38:36.924Z,75.28
2024-04-30T20:41:13.417Z,74.91
2024-04-30T20:43:42.324Z,75.10
2024-04-30T20:46:14.392Z,75.78
2024-04-30T20:48:45.757Z,75.63
2024-04-30T20:51:18.932Z,76.35
2024-04-30T20:53:47.528Z,76.16
2024-04-30T20:56:19.179Z,75.77
2024-04-30T20:58:47.783Z,76.79
2024-04-30T21:01:20.525Z,76.29
2024-04-30T21:03:49.544Z,76.29
2024-04-30T21:06:21.627Z,76.04
2024-04-30T21:08:50.256Z,76.06
2024-04-30T21:11:22.526Z,74.98
2024-04-30T21:13:52.283Z,76.40
2024-04-30T21:16:25.247Z,75.96
2024-04-30T21:18:54.222Z,76.13
2024-04-30T21:21:26.881Z,76.31
2024-04-30T21:23:55.483Z,76.24
2024-04-30T21:26:27.678Z,76.95
2024-04-30T21:28:56.172Z,76.73
2024-04-30T21:31:28.250Z,76.53
2024-04-30T21:33:56.892Z,76.37
2024-04-30T21:36:29.319Z,76.34
2024-04-30T21:38:57.929Z,76.41
2024-04-30T21:41:30.270Z,76.78
2024-04-30T21:43:58.800Z,76.55
2024-04-30T21:46:30.509Z,76.27
2024-04-30T21:49:01.994Z,76.57
2024-04-30T21:51:33.782Z,76.77
2024-04-30T21:54:02.423Z,77.10
2024-04-30T21:56:34.094Z,77.20
2024-04-30T21:59:03.185Z,76.79
2024-04-30T22:01:36.550Z,76.86
2024-04-30T22:04:05.193Z,76.61
2024-04-30T22:06:36.888Z,76.01
2024-04-30T22:09:05.268Z,74.92
2024-04-30T22:11:37.988Z,74.52
2024-04-30T22:14:06.767Z,74.88
2024-04-30T22:16:39.007Z,75.38
2024-04-30T22:19:07.764Z,76.44
2024-04-30T22:21:39.884Z,76.72
2024-04-30T22:24:08.661Z,77.40
2024-04-30T22:26:40.362Z,76.29
2024-04-30T22:29:08.787Z,76.86
2024-04-30T22:31:40.362Z,77.32
2024-04-30T22:34:09.150Z,76.76
2024-04-30T22:36:41.683Z,77.59
2024-04-30T22:39:11.090Z,77.93
2024-04-30T22:41:43.209Z,77.70
2024-04-30T22:44:14.303Z,77.39
2024-04-30T22:46:43.887Z,78.37
2024-04-30T22:49:15.581Z,78.52
2024-04-30T22:51:44.802Z,79.80
2024-04-30T22:54:16.283Z,79.95
2024-04-30T22:56:46.066Z,79.80
2024-04-30T22:59:17.423Z,79.34
2024-04-30T23:01:48.394Z,79.47
2024-04-30T23:04:21.872Z,79.64
2024-04-30T23:06:51.066Z,80.29
2024-04-30T23:09:22.781Z,80.12
2024-04-30T23:11:52.014Z,79.89
2024-04-30T23:14:23.209Z,80.94
2024-04-30T23:16:52.747Z,81.26
2024-04-30T23:19:23.914Z,81.68
2024-04-30T23:21:53.266Z,82.28
2024-04-30T23:24:24.564Z,81.24
2024-04-30T23:26:53.937Z,81.39
2024-04-30T23:29:27.725Z,81.31
2024-04-30T23:31:57.348Z,80.73
2024-04-30T23:34:29.090Z,80.12
2024-04-30T23:37:00.312Z,80.15
2024-04-30T23:39:31.421Z,80.02
2024-04-30T23:42:03.282Z,80.91
2024-04-30T23:44:34.680Z,81.20
2024-04-30T23:47:05.150Z,81.79
2024-04-30T23:49:36.412Z,82.85
2024-04-30T23:52:07.432Z,82.47
2024-04-30T23:54:39.053Z,82.20
2024-04-30T23:57:08.038Z,81.53
2024-04-30T23:59:42.132Z,82.38
